Time;durP1;ratioP1;P1;durP2;ratioP2;P2;SDS_P1;SDS_P2;PMS_P1;PMS_P2;Temp;Humidity;BMP_temperature;BMP_pressure;BME280_temperature;BME280_humidity;BME280_pressure;Samples;Min_cycle;Max_cycle;Signal;HPM_P1;HPM_P2
2023/09/09 00:02:09;;;;;;;4.25;1.77;;;21.60;99.90;;;;;;5123117;27;20061;-70
2023/09/09 00:04:34;;;;;;;0.55;0.55;;;21.50;99.90;;;;;;5113261;27;20035;-70
2023/09/09 00:07:02;;;;;;;0.75;0.75;;;21.60;99.90;;;;;;5122898;27;20039;-69
2023/09/09 00:09:29;;;;;;;0.98;0.93;;;21.50;99.90;;;;;;5121626;27;20491;-70
2023/09/09 00:11:55;;;;;;;2.22;1.70;;;21.50;99.90;;;;;;5123790;27;20044;-69
2023/09/09 00:14:21;;;;;;;1.95;1.08;;;21.50;99.90;;;;;;5121164;27;20043;-69
2023/09/09 00:16:46;;;;;;;1.08;0.75;;;21.50;99.90;;;;;;5121488;27;20036;-69
2023/09/09 00:19:12;;;;;;;5.10;3.30;;;21.50;99.90;;;;;;5122194;27;20059;-69
2023/09/09 00:21:38;;;;;;;0.88;0.82;;;21.40;99.90;;;;;;5103317;27;20124;-70
2023/09/09 00:24:04;;;;;;;0.80;0.50;;;21.40;99.90;;;;;;5129000;27;20051;-70
2023/09/09 00:26:31;;;;;;;3.42;2.28;;;21.40;99.90;;;;;;5124430;27;20050;-70
2023/09/09 00:28:57;;;;;;;4.32;1.33;;;21.30;99.90;;;;;;5120917;27;20063;-69
2023/09/09 00:31:23;;;;;;;4.35;1.40;;;21.30;99.90;;;;;;5123316;27;20042;-70
2023/09/09 00:33:49;;;;;;;0.93;0.88;;;21.30;99.90;;;;;;5105750;27;20143;-70
2023/09/09 00:36:15;;;;;;;1.27;1.15;;;21.10;99.90;;;;;;5122967;27;20141;-69
2023/09/09 00:38:40;;;;;;;1.35;1.02;;;20.90;99.90;;;;;;5123177;27;20043;-69
2023/09/09 00:41:17;;;;;;;1.48;1.33;;;21.00;99.90;;;;;;5118202;27;20043;-69
2023/09/09 00:43:46;;;;;;;0.52;0.43;;;21.10;99.90;;;;;;5121884;27;20421;-69
2023/09/09 00:46:15;;;;;;;2.03;1.45;;;21.10;99.90;;;;;;5124270;27;20042;-70
2023/09/09 00:48:41;;;;;;;1.35;1.25;;;21.10;99.90;;;;;;5121352;27;20436;-69
2023/09/09 00:51:11;;;;;;;6.10;1.52;;;21.10;99.90;;;;;;5124056;27;20043;-69
2023/09/09 00:53:38;;;;;;;1.63;1.50;;;21.10;99.90;;;;;;5124240;27;20047;-70
2023/09/09 00:56:05;;;;;;;5.63;2.55;;;21.10;99.90;;;;;;5123232;27;20428;-69
2023/09/09 00:58:31;;;;;;;0.45;0.45;;;21.10;99.90;;;;;;5123104;27;20051;-69
2023/09/09 01:00:58;;;;;;;3.70;1.85;;;21.10;99.90;;;;;;5111643;27;20039;-69
2023/09/09 01:03:24;;;;;;;1.30;1.13;;;21.00;99.90;;;;;;5120979;27;20035;-69
2023/09/09 01:05:50;;;;;;;2.90;1.13;;;20.90;99.90;;;;;;5114245;27;20055;-69
2023/09/09 01:08:26;;;;;;;2.53;1.10;;;20.90;99.90;;;;;;5123160;27;20491;-69
2023/09/09 01:10:52;;;;;;;1.50;1.40;;;20.90;99.90;;;;;;5121367;27;20479;-69
2023/09/09 01:13:18;;;;;;;5.63;2.90;;;20.90;99.90;;;;;;5121542;27;20051;-70
2023/09/09 01:15:43;;;;;;;1.58;1.48;;;21.00;99.90;;;;;;5115613;27;20367;-70
2023/09/09 01:18:09;;;;;;;0.70;0.40;;;21.00;99.90;;;;;;5120951;27;20143;-69
2023/09/09 01:20:39;;;;;;;0.70;0.70;;;20.90;99.90;;;;;;5122868;27;20039;-69
2023/09/09 01:23:04;;;;;;;0.98;0.98;;;21.00;99.90;;;;;;5121671;27;20581;-69
2023/09/09 01:25:30;;;;;;;2.42;1.77;;;21.00;99.90;;;;;;5121688;27;20050;-69
2023/09/09 01:27:55;;;;;;;7.65;1.52;;;20.90;99.90;;;;;;5119502;27;20085;-70
2023/09/09 01:30:21;;;;;;;1.88;1.15;;;20.90;99.90;;;;;;5118764;27;20043;-69
2023/09/09 01:32:47;;;;;;;1.70;1.02;;;20.90;99.90;;;;;;5120584;28;20054;-69
2023/09/09 01:35:14;;;;;;;3.20;1.05;;;20.80;99.90;;;;;;5122841;27;20135;-69
2023/09/09 01:37:40;;;;;;;4.72;2.80;;;20.80;99.90;;;;;;5122612;27;20122;-69
2023/09/09 01:40:10;;;;;;;10.25;1.25;;;20.80;99.90;;;;;;5120049;28;20035;-70
2023/09/09 01:42:37;;;;;;;1.65;1.02;;;20.80;99.90;;;;;;5122797;28;20075;-69
2023/09/09 01:45:03;;;;;;;1.13;1.05;;;20.80;99.90;;;;;;5119555;28;20155;-70
2023/09/09 01:47:29;;;;;;;1.05;1.05;;;20.80;99.90;;;;;;5096997;28;20059;-69
2023/09/09 01:49:54;;;;;;;2.13;1.48;;;20.80;99.90;;;;;;5121717;28;20039;-70
2023/09/09 01:52:20;;;;;;;4.25;1.90;;;20.80;99.90;;;;;;5124217;28;20555;-70
2023/09/09 01:54:45;;;;;;;2.72;1.50;;;20.70;99.90;;;;;;5123581;28;20088;-69
2023/09/09 01:57:11;;;;;;;9.20;1.63;;;20.70;99.90;;;;;;5117880;28;20085;-70
2023/09/09 01:59:37;;;;;;;1.35;0.88;;;20.70;99.90;;;;;;5104183;28;20122;-69
2023/09/09 02:02:03;;;;;;;3.80;2.53;;;20.70;99.90;;;;;;5116045;28;20044;-69
2023/09/09 02:04:28;;;;;;;1.80;1.23;;;20.70;99.90;;;;;;5121693;28;20040;-69
2023/09/09 02:06:54;;;;;;;1.05;0.95;;;20.60;99.90;;;;;;5120989;28;20120;-70
2023/09/09 02:09:19;;;;;;;1.65;1.38;;;20.60;99.90;;;;;;5121926;28;20055;-70
2023/09/09 02:11:45;;;;;;;0.90;0.82;;;20.60;99.90;;;;;;5121835;28;20028;-69
2023/09/09 02:14:10;;;;;;;1.00;1.00;;;20.60;99.90;;;;;;5122289;28;20086;-69
2023/09/09 02:16:36;;;;;;;0.85;0.85;;;20.50;99.90;;;;;;5119572;28;20762;-69
2023/09/09 02:19:02;;;;;;;0.85;0.82;;;20.50;99.90;;;;;;5120480;28;20039;-70
2023/09/09 02:21:29;;;;;;;3.25;1.70;;;20.50;99.90;;;;;;5122003;28;20410;-69
2023/09/09 02:23:54;;;;;;;0.55;0.55;;;20.50;99.90;;;;;;5121548;28;20040;-70
2023/09/09 02:26:20;;;;;;;2.38;2.17;;;20.50;99.90;;;;;;5120548;28;20046;-69
2023/09/09 02:28:46;;;;;;;1.90;1.63;;;20.50;99.90;;;;;;5123391;28;20483;-69
2023/09/09 02:31:12;;;;;;;1.23;1.10;;;20.50;99.90;;;;;;5118749;28;20039;-69
2023/09/09 02:33:37;;;;;;;10.48;1.88;;;20.40;99.90;;;;;;5120225;28;20402;-70
2023/09/09 02:36:03;;;;;;;0.77;0.77;;;20.40;99.90;;;;;;5126606;27;20039;-69
2023/09/09 02:38:29;;;;;;;1.10;0.98;;;20.40;99.90;;;;;;5125038;27;20039;-69
2023/09/09 02:40:54;;;;;;;1.33;1.23;;;20.30;99.90;;;;;;5107504;27;20051;-69
2023/09/09 02:43:20;;;;;;;1.10;1.00;;;20.30;99.90;;;;;;5125735;27;20054;-69
2023/09/09 02:45:45;;;;;;;0.57;0.57;;;20.30;99.90;;;;;;5123935;27;20130;-70
2023/09/09 02:48:11;;;;;;;0.68;0.68;;;20.30;99.90;;;;;;5109186;27;20126;-69
2023/09/09 02:50:37;;;;;;;4.47;1.08;;;20.20;99.90;;;;;;5127552;27;20043;-69
2023/09/09 02:53:02;;;;;;;2.17;1.20;;;20.20;99.90;;;;;;5123123;27;20543;-69
2023/09/09 02:55:28;;;;;;;1.23;1.23;;;20.20;99.90;;;;;;5126048;27;20051;-69
2023/09/09 02:57:54;;;;;;;2.95;1.52;;;20.10;99.90;;;;;;5126274;27;20043;-70
2023/09/09 03:00:19;;;;;;;2.28;2.05;;;20.20;99.90;;;;;;5118948;27;20043;-69
2023/09/09 03:02:45;;;;;;;1.08;0.98;;;20.10;99.90;;;;;;5125307;27;20034;-69
2023/09/09 03:05:11;;;;;;;1.30;1.20;;;20.10;99.90;;;;;;5132283;27;20111;-69
2023/09/09 03:07:37;;;;;;;2.22;1.63;;;20.10;99.90;;;;;;5123830;27;20091;-69
2023/09/09 03:10:03;;;;;;;7.55;0.60;;;20.10;99.90;;;;;;5123747;27;20036;-69
2023/09/09 03:12:29;;;;;;;1.13;0.82;;;20.00;99.90;;;;;;5105673;27;20122;-69
2023/09/09 03:14:54;;;;;;;1.42;1.33;;;20.10;99.90;;;;;;5134772;27;20176;-69
2023/09/09 03:17:20;;;;;;;1.83;1.42;;;20.00;99.90;;;;;;5125758;27;20027;-69
2023/09/09 03:19:46;;;;;;;0.90;0.90;;;20.00;99.90;;;;;;5123013;27;20128;-69
2023/09/09 03:22:11;;;;;;;1.95;1.77;;;20.00;99.90;;;;;;5120338;27;20382;-69
2023/09/09 03:24:37;;;;;;;1.63;1.33;;;20.00;99.90;;;;;;5120418;27;20039;-69
2023/09/09 03:27:03;;;;;;;2.22;1.48;;;19.90;99.90;;;;;;5126151;27;20385;-69
2023/09/09 03:29:28;;;;;;;2.17;1.85;;;20.00;99.90;;;;;;5107465;27;20504;-69
2023/09/09 03:31:54;;;;;;;4.13;2.22;;;20.00;99.90;;;;;;5122312;27;20043;-69
2023/09/09 03:34:19;;;;;;;6.00;2.92;;;20.00;99.90;;;;;;5121907;27;20136;-69
2023/09/09 03:36:45;;;;;;;3.42;1.73;;;19.90;99.90;;;;;;5121859;27;20040;-70
2023/09/09 03:39:11;;;;;;;2.67;1.50;;;20.00;99.90;;;;;;5124489;27;20035;-69
2023/09/09 03:41:39;;;;;;;0.88;0.88;;;20.00;99.90;;;;;;5125132;27;20043;-69
2023/09/09 03:44:05;;;;;;;3.13;2.60;;;19.80;99.90;;;;;;5122995;27;20050;-69
2023/09/09 03:46:30;;;;;;;1.75;1.65;;;19.90;99.90;;;;;;5122896;27;20126;-69
2023/09/09 03:48:56;;;;;;;1.40;0.95;;;19.80;99.90;;;;;;5104370;27;20039;-69
2023/09/09 03:51:22;;;;;;;2.05;1.48;;;19.80;99.90;;;;;;5124584;27;20495;-69
2023/09/09 03:53:47;;;;;;;3.00;2.15;;;19.90;99.90;;;;;;5125787;27;20046;-69
2023/09/09 03:56:14;;;;;;;3.58;1.42;;;19.80;99.90;;;;;;5121916;27;20085;-69
2023/09/09 03:58:39;;;;;;;2.67;1.38;;;19.80;99.90;;;;;;5120777;27;20623;-69
2023/09/09 04:01:07;;;;;;;4.90;0.90;;;19.70;99.90;;;;;;5122122;27;20036;-69
2023/09/09 04:03:34;;;;;;;8.02;1.45;;;19.70;99.90;;;;;;5120731;27;20039;-69
2023/09/09 04:06:06;;;;;;;3.50;0.50;;;19.70;99.90;;;;;;5114997;27;20092;-69
2023/09/09 04:08:32;;;;;;;0.50;0.50;;;19.70;99.90;;;;;;5121770;27;20082;-69
2023/09/09 04:10:58;;;;;;;1.67;1.58;;;19.70;99.90;;;;;;5122489;27;20483;-69
2023/09/09 04:13:24;;;;;;;1.00;1.00;;;19.70;99.90;;;;;;5122655;27;20123;-69
2023/09/09 04:15:53;;;;;;;2.13;1.55;;;19.70;99.90;;;;;;5126015;27;20035;-69
2023/09/09 04:18:19;;;;;;;2.42;1.65;;;19.60;99.90;;;;;;5118199;27;20042;-69
2023/09/09 04:20:45;;;;;;;2.80;1.58;;;19.70;99.90;;;;;;5125344;27;20060;-69
2023/09/09 04:23:10;;;;;;;0.70;0.70;;;19.70;99.90;;;;;;5122207;27;20043;-69
2023/09/09 04:25:36;;;;;;;2.22;1.90;;;19.70;99.90;;;;;;5120605;27;20036;-69
2023/09/09 04:28:02;;;;;;;3.53;0.85;;;19.60;99.90;;;;;;5125042;27;20039;-69
2023/09/09 04:30:27;;;;;;;0.70;0.70;;;19.60;99.90;;;;;;5105756;27;20050;-69
2023/09/09 04:32:54;;;;;;;1.50;1.40;;;19.50;99.90;;;;;;5121473;27;20051;-69
2023/09/09 04:35:19;;;;;;;1.42;1.33;;;19.50;99.90;;;;;;5122652;27;20044;-69
2023/09/09 04:37:45;;;;;;;1.00;0.65;;;19.50;99.90;;;;;;5121270;27;20395;-69
2023/09/09 04:40:11;;;;;;;2.72;2.47;;;19.50;99.90;;;;;;5123727;27;20102;-69
2023/09/09 04:42:37;;;;;;;7.97;1.90;;;19.50;99.90;;;;;;5124678;27;20057;-69
2023/09/09 04:45:04;;;;;;;3.00;2.72;;;19.50;99.90;;;;;;5121033;27;20043;-69
2023/09/09 04:47:30;;;;;;;0.98;0.88;;;19.50;99.90;;;;;;5119917;27;20104;-69
2023/09/09 04:49:57;;;;;;;6.22;2.75;;;19.40;99.90;;;;;;5117880;27;20047;-69
2023/09/09 04:52:23;;;;;;;1.02;0.95;;;19.40;99.90;;;;;;5118195;27;20049;-69
2023/09/09 04:54:49;;;;;;;0.52;0.52;;;19.40;99.90;;;;;;5112937;27;20036;-69
2023/09/09 04:57:15;;;;;;;2.25;1.58;;;19.40;99.90;;;;;;5118514;27;20455;-69
2023/09/09 04:59:41;;;;;;;4.75;1.73;;;19.40;99.90;;;;;;5130566;27;20517;-69
2023/09/09 05:02:07;;;;;;;3.22;1.10;;;19.40;99.90;;;;;;5123075;27;20055;-69
2023/09/09 05:04:32;;;;;;;2.05;1.80;;;19.40;99.90;;;;;;5117052;27;20367;-69
2023/09/09 05:06:58;;;;;;;2.42;0.93;;;19.40;99.90;;;;;;5124337;27;20410;-69
2023/09/09 05:09:24;;;;;;;0.82;0.82;;;19.30;99.90;;;;;;5123023;27;20054;-69
2023/09/09 05:11:49;;;;;;;2.88;2.35;;;19.40;99.90;;;;;;5122970;27;20855;-69
2023/09/09 05:14:15;;;;;;;3.55;1.35;;;19.40;99.90;;;;;;5121304;27;20518;-69
2023/09/09 05:16:40;;;;;;;1.40;1.30;;;19.40;99.90;;;;;;5118373;27;20080;-69
2023/09/09 05:19:06;;;;;;;25.02;2.20;;;19.40;99.90;;;;;;5123737;27;20074;-69
2023/09/09 05:21:31;;;;;;;1.35;1.25;;;19.40;99.90;;;;;;5122108;27;20371;-69
2023/09/09 05:23:57;;;;;;;4.47;2.33;;;19.50;99.90;;;;;;5106837;27;20035;-69
2023/09/09 05:26:23;;;;;;;0.80;0.80;;;19.40;99.90;;;;;;5124763;27;20518;-69
2023/09/09 05:28:48;;;;;;;2.03;0.88;;;19.40;99.90;;;;;;5123881;27;20031;-69
2023/09/09 05:31:15;;;;;;;2.80;1.98;;;19.50;99.90;;;;;;5120994;27;20071;-69
2023/09/09 05:33:41;;;;;;;2.05;1.92;;;19.50;99.90;;;;;;5122415;27;20157;-69
2023/09/09 05:36:07;;;;;;;3.03;1.63;;;19.40;99.90;;;;;;5123825;27;20480;-69
2023/09/09 05:38:32;;;;;;;1.65;1.55;;;19.40;99.90;;;;;;5118876;27;20051;-69
2023/09/09 05:40:58;;;;;;;5.18;1.85;;;19.50;99.90;;;;;;5119794;28;20414;-69
2023/09/09 05:43:23;;;;;;;1.33;1.27;;;19.50;99.90;;;;;;5119877;28;20088;-69
2023/09/09 05:45:49;;;;;;;2.25;1.63;;;19.50;99.90;;;;;;5117123;28;20402;-69
2023/09/09 05:48:15;;;;;;;4.93;2.30;;;19.50;99.90;;;;;;5123276;28;20067;-69
2023/09/09 05:50:40;;;;;;;1.80;1.70;;;19.50;99.90;;;;;;5122256;28;20563;-69
2023/09/09 05:53:06;;;;;;;1.73;1.60;;;19.60;99.90;;;;;;5121317;28;20046;-69
2023/09/09 05:55:32;;;;;;;0.73;0.73;;;19.60;99.90;;;;;;5117794;28;20072;-69
2023/09/09 05:57:57;;;;;;;3.13;1.52;;;19.60;99.90;;;;;;5124710;28;20088;-69
2023/09/09 06:00:23;;;;;;;1.55;1.20;;;19.60;99.90;;;;;;5120808;28;20039;-69
2023/09/09 06:02:49;;;;;;;1.45;1.35;;;19.60;99.90;;;;;;5121563;28;20047;-69
2023/09/09 06:05:15;;;;;;;0.88;0.88;;;19.70;99.90;;;;;;5119569;28;20406;-69
2023/09/09 06:07:41;;;;;;;2.08;1.45;;;19.60;99.90;;;;;;5123940;28;20031;-69
2023/09/09 06:10:07;;;;;;;1.17;0.98;;;19.60;99.90;;;;;;5122910;27;20142;-69
2023/09/09 06:12:33;;;;;;;2.17;1.98;;;19.70;99.90;;;;;;5115397;27;20036;-69
2023/09/09 06:14:59;;;;;;;7.30;1.95;;;19.70;99.90;;;;;;5116211;27;20262;-69
2023/09/09 06:17:24;;;;;;;1.40;1.30;;;19.70;99.90;;;;;;5126485;27;20054;-69
2023/09/09 06:19:50;;;;;;;4.28;1.75;;;19.70;99.90;;;;;;5125436;27;20067;-69
2023/09/09 06:22:16;;;;;;;1.17;1.08;;;19.70;99.90;;;;;;5108989;27;20055;-69
2023/09/09 06:24:41;;;;;;;0.57;0.43;;;19.70;99.90;;;;;;5117153;27;20046;-69
2023/09/09 06:27:08;;;;;;;1.02;0.90;;;19.80;99.90;;;;;;5130928;27;20076;-69
2023/09/09 06:29:34;;;;;;;0.47;0.45;;;19.80;99.90;;;;;;5125290;27;20127;-69
2023/09/09 06:32:00;;;;;;;2.17;1.38;;;19.80;99.90;;;;;;5122664;27;20110;-69
2023/09/09 06:34:26;;;;;;;0.20;0.20;;;19.90;99.90;;;;;;5117786;27;20044;-69
2023/09/09 06:36:52;;;;;;;3.75;1.65;;;19.90;99.90;;;;;;5126725;27;20043;-69
2023/09/09 06:39:18;;;;;;;0.63;0.63;;;20.00;99.90;;;;;;5122668;27;20486;-69
2023/09/09 06:41:43;;;;;;;1.85;1.58;;;20.10;99.90;;;;;;5122902;27;20036;-69
2023/09/09 06:44:09;;;;;;;3.95;1.05;;;20.10;99.90;;;;;;5126671;27;20517;-69
2023/09/09 06:46:34;;;;;;;0.52;0.40;;;20.20;99.90;;;;;;5127429;27;20122;-69
2023/09/09 06:49:00;;;;;;;0.70;0.68;;;20.30;99.90;;;;;;5117039;27;20054;-69
2023/09/09 06:51:26;;;;;;;0.85;0.73;;;20.30;99.90;;;;;;5126349;27;20132;-69
2023/09/09 06:53:51;;;;;;;1.42;0.90;;;20.40;99.90;;;;;;5120144;27;20396;-69
2023/09/09 06:56:17;;;;;;;6.93;1.20;;;20.50;99.90;;;;;;5126227;27;20047;-69
2023/09/09 06:58:42;;;;;;;1.60;1.50;;;20.60;99.90;;;;;;5122929;27;20448;-69
2023/09/09 07:01:08;;;;;;;1.15;1.05;;;20.70;99.90;;;;;;5122971;27;20069;-69
2023/09/09 07:03:34;;;;;;;2.10;0.75;;;20.70;99.90;;;;;;5127924;27;20145;-69
2023/09/09 07:06:00;;;;;;;2.25;2.08;;;20.80;99.90;;;;;;5119003;27;20043;-69
2023/09/09 07:08:27;;;;;;;1.65;1.55;;;20.90;99.90;;;;;;5107504;28;20114;-69
2023/09/09 07:10:53;;;;;;;5.72;1.80;;;20.90;99.90;;;;;;5122594;27;20048;-69
2023/09/09 07:13:22;;;;;;;1.83;1.33;;;21.00;99.90;;;;;;5124673;27;20047;-69
2023/09/09 07:15:53;;;;;;;0.95;0.95;;;21.10;99.90;;;;;;5128022;27;20039;-69
2023/09/09 07:18:20;;;;;;;1.08;0.93;;;21.10;99.90;;;;;;5126757;27;20043;-69
2023/09/09 07:20:46;;;;;;;4.40;2.53;;;21.20;99.90;;;;;;5123761;27;20131;-69
2023/09/09 07:23:14;;;;;;;1.67;1.52;;;21.30;99.90;;;;;;5123679;27;20043;-69
2023/09/09 07:25:40;;;;;;;3.60;1.20;;;21.30;99.90;;;;;;5122514;27;20491;-69
2023/09/09 07:28:06;;;;;;;1.98;1.20;;;21.30;99.90;;;;;;5123324;27;20035;-69
2023/09/09 07:30:33;;;;;;;0.68;0.68;;;21.40;99.90;;;;;;5122896;27;20126;-69
2023/09/09 07:32:58;;;;;;;0.40;0.40;;;21.50;99.90;;;;;;5116301;27;20072;-69
2023/09/09 07:35:24;;;;;;;5.25;1.40;;;21.50;99.90;;;;;;5123138;27;20125;-69
2023/09/09 07:37:50;;;;;;;9.43;2.90;;;21.50;99.90;;;;;;5125922;27;20439;-69
2023/09/09 07:40:16;;;;;;;0.75;0.70;;;21.60;99.90;;;;;;5123935;27;20039;-69
2023/09/09 07:42:42;;;;;;;2.25;0.85;;;21.60;99.90;;;;;;5103800;27;20100;-69
2023/09/09 07:45:08;;;;;;;2.05;1.90;;;21.60;99.90;;;;;;5124712;27;20110;-69
2023/09/09 07:47:33;;;;;;;3.30;1.58;;;21.60;99.90;;;;;;5123982;27;20047;-69
2023/09/09 07:49:59;;;;;;;0.68;0.68;;;21.70;99.90;;;;;;5123261;27;20494;-69
2023/09/09 07:52:24;;;;;;;0.93;0.93;;;21.80;99.90;;;;;;5122818;27;20479;-70
2023/09/09 07:54:52;;;;;;;1.88;1.75;;;21.80;99.90;;;;;;5116621;27;20032;-69
2023/09/09 07:57:17;;;;;;;0.10;0.10;;;21.90;99.90;;;;;;5124499;27;20490;-69
2023/09/09 07:59:43;;;;;;;1.13;1.02;;;22.00;99.90;;;;;;5122756;27;20050;-69
2023/09/09 08:02:09;;;;;;;0.65;0.60;;;22.00;99.90;;;;;;5103366;27;20047;-69
2023/09/09 08:04:34;;;;;;;1.02;0.77;;;22.00;99.90;;;;;;5125339;27;20031;-69
2023/09/09 08:07:00;;;;;;;0.13;0.13;;;22.10;99.90;;;;;;5098236;27;20499;-69
2023/09/09 08:09:26;;;;;;;0.40;0.40;;;22.10;99.90;;;;;;5119512;27;20039;-69
2023/09/09 08:11:52;;;;;;;0.63;0.63;;;22.10;99.90;;;;;;5125246;27;20079;-69
2023/09/09 08:14:18;;;;;;;0.43;0.43;;;22.20;99.90;;;;;;5122631;27;20046;-69
2023/09/09 08:16:44;;;;;;;0.77;0.75;;;22.30;99.90;;;;;;5119785;27;20043;-69
2023/09/09 08:19:09;;;;;;;4.03;1.02;;;22.40;99.90;;;;;;5122487;27;20051;-69
2023/09/09 08:21:35;;;;;;;0.30;0.25;;;22.30;99.90;;;;;;5121623;27;20036;-69
2023/09/09 08:24:01;;;;;;;2.45;0.52;;;22.40;99.90;;;;;;5120107;27;20475;-69
2023/09/09 08:26:28;;;;;;;1.60;0.70;;;22.50;99.90;;;;;;5123369;27;20051;-69
2023/09/09 08:28:54;;;;;;;1.02;0.57;;;22.50;99.90;;;;;;5124442;27;20379;-69
2023/09/09 08:31:20;;;;;;;0.50;0.38;;;22.60;99.90;;;;;;5123235;27;20051;-69
2023/09/09 08:33:46;;;;;;;0.00;0.00;;;22.60;99.90;;;;;;5121089;27;20133;-69
2023/09/09 08:36:12;;;;;;;0.32;0.32;;;22.60;99.90;;;;;;5121053;27;20111;-69
2023/09/09 08:38:38;;;;;;;0.22;0.22;;;22.70;99.90;;;;;;5118954;27;20471;-69
2023/09/09 08:41:10;;;;;;;1.33;1.13;;;22.80;99.90;;;;;;5103704;28;20073;-69
2023/09/09 08:43:44;;;;;;;3.03;0.60;;;22.90;99.90;;;;;;5102691;28;20544;-69
2023/09/09 08:46:19;;;;;;;0.32;0.20;;;22.90;99.90;;;;;;5120825;27;20501;-69
2023/09/09 08:48:48;;;;;;;1.85;0.75;;;23.00;99.90;;;;;;5123224;27;20035;-69
2023/09/09 08:51:16;;;;;;;0.10;0.10;;;23.20;99.90;;;;;;5101158;28;20051;-69
2023/09/09 08:53:43;;;;;;;1.30;0.98;;;23.60;99.90;;;;;;5118148;27;20067;-69
2023/09/09 08:56:12;;;;;;;0.32;0.32;;;23.70;99.90;;;;;;5124511;27;20051;-69
2023/09/09 08:58:37;;;;;;;0.00;0.00;;;23.70;99.90;;;;;;5124159;27;20035;-69
2023/09/09 09:01:03;;;;;;;4.57;1.30;;;23.90;99.90;;;;;;5114507;27;20097;-69
2023/09/09 09:03:31;;;;;;;0.10;0.10;;;24.60;99.90;;;;;;5127863;27;20253;-70
2023/09/09 09:05:58;;;;;;;0.57;0.57;;;25.30;99.90;;;;;;5120685;27;20039;-70
2023/09/09 09:08:24;;;;;;;2.80;1.60;;;26.00;99.90;;;;;;5122363;27;20047;-70
2023/09/09 09:10:49;;;;;;;1.08;0.98;;;26.70;99.90;;;;;;5121139;27;20062;-70
2023/09/09 09:13:15;;;;;;;0.17;0.17;;;27.20;99.90;;;;;;5122076;27;20042;-70
2023/09/09 09:15:42;;;;;;;0.47;0.47;;;27.50;99.90;;;;;;5128214;27;20040;-70
2023/09/09 09:18:08;;;;;;;16.65;1.00;;;27.90;99.90;;;;;;5115842;27;20475;-70
2023/09/09 09:20:34;;;;;;;1.00;0.63;;;28.20;99.90;;;;;;5124192;27;20062;-70
2023/09/09 09:23:03;;;;;;;1.75;0.65;;;28.40;99.90;;;;;;5119895;27;20039;-70
2023/09/09 09:25:35;;;;;;;0.35;0.13;;;28.70;99.90;;;;;;5120851;27;20043;-70
2023/09/09 09:28:02;;;;;;;0.25;0.25;;;28.90;99.90;;;;;;5118218;27;20251;-70
2023/09/09 09:30:29;;;;;;;0.17;0.17;;;29.10;99.90;;;;;;5129581;27;20070;-70
2023/09/09 09:32:55;;;;;;;0.85;0.82;;;29.00;99.90;;;;;;5120018;27;20051;-70
2023/09/09 09:35:25;;;;;;;0.10;0.10;;;29.20;99.90;;;;;;5101691;28;20112;-72
2023/09/09 09:37:53;;;;;;;0.28;0.28;;;29.10;99.90;;;;;;5123103;27;20079;-70
2023/09/09 09:40:18;;;;;;;0.55;0.47;;;29.40;99.90;;;;;;5123259;27;20078;-71
2023/09/09 09:42:44;;;;;;;0.47;0.47;;;29.50;99.90;;;;;;5123045;28;20502;-71
2023/09/09 09:45:10;;;;;;;0.10;0.10;;;29.20;99.90;;;;;;5117327;28;20048;-70
2023/09/09 09:47:50;;;;;;;0.60;0.50;;;29.60;99.90;;;;;;5106784;28;20078;-71
2023/09/09 09:50:19;;;;;;;0.00;0.00;;;29.80;99.90;;;;;;5117555;28;20069;-71
2023/09/09 09:52:54;;;;;;;0.10;0.10;;;29.60;99.90;;;;;;5118267;28;20040;-70
2023/09/09 09:55:20;;;;;;;0.63;0.47;;;29.90;99.90;;;;;;5120470;28;20571;-70
2023/09/09 09:57:46;;;;;;;0.85;0.52;;;30.10;99.90;;;;;;5115482;28;20089;-70
2023/09/09 10:00:13;;;;;;;0.57;0.22;;;29.90;99.90;;;;;;5125359;28;20095;-70
2023/09/09 10:02:41;;;;;;;0.00;0.00;;;30.00;99.90;;;;;;5120748;28;20032;-71
2023/09/09 10:05:11;;;;;;;0.57;0.45;;;30.20;99.90;;;;;;5119831;28;20039;-70
2023/09/09 10:07:37;;;;;;;0.10;0.10;;;30.30;99.90;;;;;;5115253;28;20501;-70
2023/09/09 10:10:07;;;;;;;0.25;0.15;;;30.10;99.90;;;;;;5120046;28;20044;-71
2023/09/09 10:13:01;;;;;;;0.38;0.30;;;29.90;99.90;;;;;;5119306;28;20059;-71
2023/09/09 10:15:27;;;;;;;0.20;0.20;;;29.80;99.90;;;;;;5119164;28;20035;-71
2023/09/09 10:17:54;;;;;;;0.20;0.20;;;29.70;99.90;;;;;;5108255;28;20047;-71
2023/09/09 10:20:23;;;;;;;0.00;0.00;;;29.40;99.90;;;;;;5121168;28;20066;-71
2023/09/09 10:22:50;;;;;;;0.00;0.00;;;29.30;99.90;;;;;;5122757;28;20041;-71
2023/09/09 10:25:17;;;;;;;0.10;0.10;;;29.40;99.90;;;;;;5103853;28;20047;-70
2023/09/09 10:27:43;;;;;;;0.00;0.00;;;29.30;99.90;;;;;;5120470;28;20028;-69
2023/09/09 10:30:10;;;;;;;3.42;0.55;;;29.20;99.90;;;;;;5123126;28;20524;-68
2023/09/09 10:32:36;;;;;;;3.50;0.20;;;29.10;99.90;;;;;;5103047;28;20055;-69
2023/09/09 10:35:05;;;;;;;2.10;0.47;;;29.10;99.90;;;;;;5122873;28;20166;-69
2023/09/09 10:37:34;;;;;;;0.20;0.08;;;29.10;99.90;;;;;;5116097;28;20047;-68
2023/09/09 10:40:01;;;;;;;0.30;0.28;;;29.00;99.90;;;;;;5125069;28;20039;-68
2023/09/09 10:42:27;;;;;;;0.75;0.75;;;29.00;99.90;;;;;;5122726;28;20117;-69
2023/09/09 10:45:17;;;;;;;1.02;0.20;;;29.00;99.90;;;;;;5121117;28;20054;-69
2023/09/09 10:48:03;;;;;;;0.00;0.00;;;28.90;99.90;;;;;;5110878;28;20035;-68
2023/09/09 10:50:44;;;;;;;0.10;0.10;;;29.10;99.90;;;;;;5119502;28;20075;-68
2023/09/09 10:53:23;;;;;;;1.73;1.42;;;28.90;99.90;;;;;;5092987;28;20054;-68
2023/09/09 10:55:53;;;;;;;0.47;0.47;;;29.00;99.90;;;;;;5120194;28;20051;-68
2023/09/09 10:58:20;;;;;;;0.25;0.13;;;29.00;99.90;;;;;;5121526;27;20051;-68
2023/09/09 11:00:48;;;;;;;0.10;0.10;;;29.20;99.90;;;;;;5122321;27;20071;-68
2023/09/09 11:03:15;;;;;;;0.30;0.30;;;29.30;99.90;;;;;;5110751;27;20051;-68
2023/09/09 11:06:02;;;;;;;0.30;0.30;;;29.30;99.90;;;;;;5107569;27;20039;-68
2023/09/09 11:08:46;;;;;;;0.17;0.17;;;29.40;99.90;;;;;;5123967;27;20051;-68
2023/09/09 11:11:23;;;;;;;0.38;0.38;;;29.50;99.90;;;;;;5121235;27;20176;-68
2023/09/09 11:13:55;;;;;;;0.25;0.22;;;29.40;99.90;;;;;;5117829;27;20413;-68
2023/09/09 11:16:27;;;;;;;0.30;0.22;;;29.50;99.90;;;;;;5120608;27;20050;-68
2023/09/09 11:18:54;;;;;;;0.25;0.25;;;29.60;99.90;;;;;;5125929;27;20035;-68
2023/09/09 11:21:23;;;;;;;1.90;0.43;;;29.70;99.90;;;;;;5115631;27;20051;-68
2023/09/09 11:23:52;;;;;;;1.55;0.82;;;29.70;99.90;;;;;;5126883;27;20050;-68
2023/09/09 11:26:18;;;;;;;0.38;0.38;;;29.80;99.90;;;;;;5124423;27;20051;-68
2023/09/09 11:28:46;;;;;;;0.15;0.00;;;29.90;99.90;;;;;;5123257;27;20044;-68
2023/09/09 11:31:12;;;;;;;1.70;1.15;;;30.00;99.90;;;;;;5121483;27;20047;-68
2023/09/09 11:33:38;;;;;;;0.08;0.08;;;30.10;99.90;;;;;;5124060;27;20086;-68
2023/09/09 11:36:05;;;;;;;0.20;0.20;;;30.10;99.90;;;;;;5123130;27;20483;-68
2023/09/09 11:38:40;;;;;;;0.10;0.10;;;30.30;99.90;;;;;;5127279;27;20057;-68
2023/09/09 11:41:06;;;;;;;4.70;1.48;;;30.30;99.90;;;;;;5119381;27;20035;-68
2023/09/09 11:43:32;;;;;;;0.10;0.10;;;30.30;99.90;;;;;;5128238;27;20168;-68
2023/09/09 11:45:58;;;;;;;0.20;0.20;;;30.40;99.90;;;;;;5121624;27;20537;-68
2023/09/09 11:48:24;;;;;;;0.25;0.25;;;30.40;99.90;;;;;;5116594;27;20047;-68
2023/09/09 11:50:50;;;;;;;0.10;0.10;;;30.30;99.90;;;;;;5123370;27;20047;-68
2023/09/09 11:53:19;;;;;;;0.50;0.50;;;30.40;99.90;;;;;;5125327;27;20031;-68
2023/09/09 11:55:45;;;;;;;0.30;0.30;;;30.50;99.90;;;;;;5117506;27;20483;-68
2023/09/09 11:58:10;;;;;;;0.57;0.55;;;30.60;99.90;;;;;;5123511;27;20050;-68
2023/09/09 12:00:36;;;;;;;0.00;0.00;;;30.40;99.90;;;;;;5097702;28;20043;-68
2023/09/09 12:03:02;;;;;;;0.30;0.10;;;30.70;99.90;;;;;;5127095;27;20064;-68
2023/09/09 12:05:30;;;;;;;0.10;0.10;;;30.90;99.90;;;;;;5122374;27;20379;-68
2023/09/09 12:08:00;;;;;;;0.60;0.60;;;31.20;99.90;;;;;;5102014;28;20039;-68
2023/09/09 12:10:30;;;;;;;0.22;0.22;;;31.20;99.90;;;;;;5117283;27;20050;-68
2023/09/09 12:12:56;;;;;;;0.00;0.00;;;31.30;99.90;;;;;;5123798;27;20079;-68
2023/09/09 12:15:23;;;;;;;0.20;0.20;;;31.20;99.90;;;;;;5129729;27;20095;-68
2023/09/09 12:17:49;;;;;;;0.30;0.30;;;31.20;99.90;;;;;;5103934;28;20044;-68
2023/09/09 12:20:14;;;;;;;0.13;0.13;;;31.50;99.90;;;;;;5122462;27;20150;-67
2023/09/09 12:22:49;;;;;;;0.30;0.30;;;31.50;99.90;;;;;;5125663;27;20038;-68
2023/09/09 12:25:30;;;;;;;0.80;0.52;;;31.60;99.90;;;;;;5122639;27;20498;-68
2023/09/09 12:27:56;;;;;;;0.30;0.30;;;31.60;99.90;;;;;;5118026;27;20494;-68
2023/09/09 12:30:33;;;;;;;0.10;0.10;;;31.70;99.90;;;;;;5123017;27;20080;-68
2023/09/09 12:33:11;;;;;;;0.13;0.13;;;31.50;99.90;;;;;;5121749;27;20090;-68
2023/09/09 12:35:57;;;;;;;0.10;0.10;;;31.50;99.90;;;;;;5121304;27;20044;-68
2023/09/09 12:38:22;;;;;;;0.75;0.35;;;31.60;99.90;;;;;;5127208;27;20485;-68
2023/09/09 12:40:49;;;;;;;0.43;0.30;;;31.40;99.90;;;;;;5119446;27;20043;-68
2023/09/09 12:43:26;;;;;;;1.27;0.70;;;31.40;99.90;;;;;;5105834;27;20059;-68
2023/09/09 12:46:06;;;;;;;0.00;0.00;;;31.50;99.90;;;;;;5116334;27;20044;-68